createdAt,value
2022-11-15T00:02:44.976Z,34.53
2022-11-15T00:05:37.072Z,35.92
2022-11-15T00:08:30.754Z,36.17
2022-11-15T00:11:21.216Z,34.88
2022-11-15T00:14:11.471Z,36.25
2022-11-15T00:17:01.780Z,38.42
2022-11-15T00:19:51.886Z,36.25
2022-11-15T00:22:44.755Z,37.28
2022-11-15T00:25:35.161Z,35.47
2022-11-15T00:28:26.063Z,35.30
2022-11-15T00:31:16.336Z,35.83
2022-11-15T00:34:07.105Z,35.78
2022-11-15T00:36:57.209Z,36.70
2022-11-15T00:39:47.342Z,36.15
2022-11-15T00:42:37.155Z,35.38
2022-11-15T00:45:28.929Z,33.17
2022-11-15T00:48:19.378Z,30.85
2022-11-15T00:51:09.996Z,32.63
2022-11-15T00:54:00.227Z,30.83
2022-11-15T00:56:50.503Z,30.08
2022-11-15T00:59:41.988Z,29.67
2022-11-15T01:02:33.890Z,30.63
2022-11-15T01:05:24.392Z,32.42
2022-11-15T01:08:18.192Z,33.00
2022-11-15T01:11:10.778Z,33.58
2022-11-15T01:14:00.849Z,32.70
2022-11-15T01:16:50.988Z,34.45
2022-11-15T01:19:41.179Z,31.83
2022-11-15T01:22:34.335Z,33.28
2022-11-15T01:25:24.259Z,31.48
2022-11-15T01:28:14.656Z,31.25
2022-11-15T01:31:10.286Z,29.35
2022-11-15T01:36:50.891Z,30.10
2022-11-15T01:39:41.340Z,28.20
2022-11-15T01:42:34.354Z,29.00
2022-11-15T01:45:24.361Z,27.80
2022-11-15T01:48:14.717Z,29.38
2022-11-15T01:51:10.311Z,29.90
2022-11-15T01:54:05.672Z,28.48
2022-11-15T01:57:16.060Z,28.50
2022-11-15T02:00:08.111Z,29.63
2022-11-15T02:02:58.559Z,29.23
2022-11-15T02:05:48.514Z,27.80
2022-11-15T02:08:38.735Z,29.15
2022-11-15T02:11:29.347Z,30.65
2022-11-15T02:14:21.075Z,28.65
2022-11-15T02:17:30.210Z,28.40
2022-11-15T02:20:19.970Z,27.20
2022-11-15T02:23:34.902Z,26.65
2022-11-15T02:26:46.865Z,26.88
2022-11-15T02:29:49.148Z,25.80
2022-11-15T02:32:44.839Z,27.50
2022-11-15T02:35:44.275Z,26.05
2022-11-15T02:38:49.862Z,27.58
2022-11-15T02:41:55.621Z,25.77
2022-11-15T02:47:44.251Z,27.08
2022-11-15T02:50:35.276Z,25.60
2022-11-15T02:53:26.799Z,26.52
2022-11-15T02:56:16.841Z,25.23
2022-11-15T02:59:30.734Z,27.02
2022-11-15T03:02:56.479Z,25.05
2022-11-15T03:05:55.506Z,25.38
2022-11-15T03:09:07.550Z,27.27
2022-11-15T03:12:17.988Z,26.00
2022-11-15T03:15:21.368Z,28.05
2022-11-15T03:18:22.925Z,25.92
2022-11-15T03:21:15.745Z,25.95
2022-11-15T03:24:09.746Z,27.40
2022-11-15T03:27:05.889Z,27.67
2022-11-15T03:30:01.538Z,28.90
2022-11-15T03:32:56.718Z,26.15
2022-11-15T03:35:48.642Z,28.45
2022-11-15T03:38:39.810Z,28.98
2022-11-15T03:41:44.973Z,25.05
2022-11-15T03:44:43.252Z,25.48
2022-11-15T03:48:06.179Z,25.30
2022-11-15T03:50:56.604Z,28.15
2022-11-15T03:53:47.176Z,23.67
2022-11-15T03:56:37.458Z,23.90
2022-11-15T03:59:27.762Z,24.88
2022-11-15T04:02:20.686Z,24.38
2022-11-15T04:05:11.367Z,24.73
2022-11-15T04:08:01.603Z,22.58
2022-11-15T04:10:52.530Z,24.75
2022-11-15T04:13:42.583Z,22.85
2022-11-15T04:16:32.822Z,23.08
2022-11-15T04:19:41.685Z,21.55
2022-11-15T04:22:50.546Z,22.90
2022-11-15T04:25:40.971Z,19.88
2022-11-15T04:28:31.229Z,24.45
2022-11-15T04:31:21.190Z,23.98
2022-11-15T04:34:11.364Z,22.65
2022-11-15T04:37:15.310Z,22.27
2022-11-15T04:40:06.128Z,22.38
2022-11-15T04:43:03.271Z,21.83
2022-11-15T04:45:54.109Z,21.63
2022-11-15T04:48:44.435Z,21.90
2022-11-15T04:51:34.692Z,21.23
2022-11-15T04:54:24.958Z,20.65
2022-11-15T04:57:15.551Z,20.60
2022-11-15T05:00:08.988Z,22.48
2022-11-15T05:03:17.771Z,19.33
2022-11-15T05:06:08.105Z,19.80
2022-11-15T05:08:58.739Z,18.10
2022-11-15T05:11:49.136Z,18.38
2022-11-15T05:14:39.063Z,17.92
2022-11-15T05:17:29.495Z,19.83
2022-11-15T05:20:22.675Z,18.77
2022-11-15T05:23:12.943Z,17.35
2022-11-15T05:26:08.973Z,20.65
2022-11-15T05:29:00.311Z,20.95
2022-11-15T05:31:50.890Z,18.10
2022-11-15T05:34:41.316Z,20.30
2022-11-15T05:37:31.358Z,18.95
2022-11-15T05:40:21.891Z,17.23
2022-11-15T05:43:12.343Z,17.52
2022-11-15T05:46:05.279Z,17.65
2022-11-15T05:48:57.461Z,15.95
2022-11-15T05:51:51.911Z,16.20
2022-11-15T05:54:45.317Z,19.97
2022-11-15T05:57:35.940Z,16.85
2022-11-15T06:00:26.050Z,17.70
2022-11-15T06:03:16.350Z,17.02
2022-11-15T06:06:09.982Z,17.52
2022-11-15T06:09:04.112Z,17.27
2022-11-15T06:11:54.304Z,15.45
2022-11-15T06:14:44.561Z,15.98
2022-11-15T06:17:37.417Z,17.58
2022-11-15T06:20:29.560Z,16.75
2022-11-15T06:23:19.843Z,15.55
2022-11-15T06:26:10.031Z,16.95
2022-11-15T06:29:00.239Z,15.98
2022-11-15T06:31:50.491Z,14.82
2022-11-15T06:34:43.535Z,15.60
2022-11-15T06:37:34.609Z,16.38
2022-11-15T06:40:24.882Z,15.65
2022-11-15T06:43:15.662Z,15.93
2022-11-15T06:46:06.908Z,14.88
2022-11-15T06:48:57.033Z,13.85
2022-11-15T06:51:46.969Z,14.82
2022-11-15T06:54:39.895Z,16.42
2022-11-15T06:57:29.773Z,15.13
2022-11-15T07:00:21.503Z,15.52
2022-11-15T07:03:11.620Z,16.10
2022-11-15T07:06:07.161Z,15.20
2022-11-15T07:08:58.061Z,14.88
2022-11-15T07:11:48.294Z,15.15
2022-11-15T07:14:38.400Z,17.50
2022-11-15T07:17:28.620Z,15.60
2022-11-15T07:20:19.216Z,16.35
2022-11-15T07:23:09.470Z,16.00
2022-11-15T07:26:00.309Z,16.33
2022-11-15T07:28:50.628Z,16.00
2022-11-15T07:31:40.877Z,16.58
2022-11-15T07:34:31.178Z,14.75
2022-11-15T07:37:21.572Z,16.10
2022-11-15T07:40:12.266Z,18.10
2022-11-15T07:43:08.074Z,16.90
2022-11-15T07:45:59.619Z,15.38
2022-11-15T07:48:50.195Z,13.98
2022-11-15T07:51:40.268Z,14.95
2022-11-15T07:54:30.570Z,13.95
2022-11-15T07:57:20.839Z,15.57
2022-11-15T08:00:11.736Z,15.02
2022-11-15T08:03:10.078Z,14.20
2022-11-15T08:06:04.271Z,15.43
2022-11-15T08:08:55.513Z,13.43
2022-11-15T08:11:45.693Z,14.90
2022-11-15T08:14:36.353Z,14.20
2022-11-15T08:17:27.045Z,14.43
2022-11-15T08:20:17.437Z,14.77
2022-11-15T08:23:08.655Z,14.20
2022-11-15T08:26:04.150Z,16.13
2022-11-15T08:31:44.302Z,13.98
2022-11-15T08:34:38.012Z,14.13
2022-11-15T08:37:28.198Z,14.88
2022-11-15T08:40:19.646Z,14.60
2022-11-15T08:43:12.948Z,14.63
2022-11-15T08:46:05.570Z,15.40
2022-11-15T08:48:58.620Z,14.52
2022-11-15T08:51:48.784Z,15.50
2022-11-15T08:54:38.833Z,15.15
2022-11-15T08:57:32.182Z,14.95
2022-11-15T09:00:22.483Z,15.05
2022-11-15T09:03:12.681Z,14.82
2022-11-15T09:06:04.939Z,16.75
2022-11-15T09:08:57.786Z,14.35
2022-11-15T09:11:48.215Z,14.85
2022-11-15T09:14:38.697Z,16.20
2022-11-15T09:17:28.735Z,16.13
2022-11-15T09:20:19.082Z,15.70
2022-11-15T09:23:09.890Z,15.93
2022-11-15T09:26:02.145Z,16.95
2022-11-15T09:28:52.730Z,14.73
2022-11-15T09:31:42.899Z,15.63
2022-11-15T09:34:33.067Z,14.32
2022-11-15T09:37:26.343Z,15.32
2022-11-15T09:40:18.564Z,15.02
2022-11-15T09:43:24.036Z,14.88
2022-11-15T09:46:56.215Z,14.80
2022-11-15T09:50:00.402Z,14.13
2022-11-15T09:52:42.601Z,14.07
2022-11-15T09:55:22.304Z,15.63
2022-11-15T09:58:16.868Z,14.70
2022-11-15T10:00:53.710Z,14.75
2022-11-15T10:03:31.626Z,14.90
2022-11-15T10:06:06.131Z,15.63
2022-11-15T10:09:24.076Z,15.15
2022-11-15T10:11:58.574Z,15.65
2022-11-15T10:14:32.098Z,15.25
2022-11-15T10:17:06.590Z,15.20
2022-11-15T10:20:04.103Z,14.85
2022-11-15T10:22:45.804Z,14.75
2022-11-15T10:25:26.174Z,17.25
2022-11-15T10:28:16.495Z,16.35
2022-11-15T10:30:55.698Z,16.08
2022-11-15T10:33:38.207Z,16.70
2022-11-15T10:36:14.767Z,17.10
2022-11-15T10:38:49.378Z,17.45
2022-11-15T10:41:36.096Z,16.20
2022-11-15T10:44:07.559Z,17.73
2022-11-15T10:46:47.139Z,17.65
2022-11-15T10:49:29.629Z,17.90
2022-11-15T10:52:17.868Z,19.23
2022-11-15T10:55:12.514Z,18.73
2022-11-15T10:57:52.716Z,18.50
2022-11-15T11:00:31.111Z,20.25
2022-11-15T11:03:08.183Z,18.55
2022-11-15T11:05:43.152Z,18.95
2022-11-15T11:08:14.804Z,19.98
2022-11-15T11:11:04.112Z,19.85
2022-11-15T11:13:40.859Z,18.90
2022-11-15T11:16:15.180Z,19.83
2022-11-15T11:18:50.859Z,15.60
2022-11-15T11:22:01.305Z,19.45
2022-11-15T11:24:48.983Z,18.65
2022-11-15T11:27:41.849Z,19.08
2022-11-15T11:30:21.584Z,20.75
2022-11-15T11:33:17.033Z,22.02
2022-11-15T11:38:59.155Z,20.52
2022-11-15T11:41:45.062Z,21.52
2022-11-15T11:44:52.248Z,22.15
2022-11-15T11:47:36.000Z,20.67
2022-11-15T11:50:20.915Z,22.75
2022-11-15T11:53:03.858Z,24.60
2022-11-15T11:55:39.846Z,20.73
2022-11-15T11:58:23.005Z,20.92
2022-11-15T12:01:01.080Z,20.27
2022-11-15T12:03:48.900Z,19.73
2022-11-15T12:06:48.287Z,19.58
2022-11-15T12:09:47.480Z,21.70
2022-11-15T12:12:31.025Z,20.80
2022-11-15T12:15:16.783Z,21.40
2022-11-15T12:17:52.212Z,21.13
2022-11-15T12:20:26.367Z,22.20
2022-11-15T12:23:14.997Z,24.30
2022-11-15T12:26:07.416Z,22.17
2022-11-15T12:29:06.818Z,22.00
2022-11-15T12:31:43.209Z,21.83
2022-11-15T12:34:20.836Z,22.42
2022-11-15T12:36:53.066Z,21.38
2022-11-15T12:40:07.512Z,20.70
2022-11-15T12:42:59.998Z,21.15
2022-11-15T12:45:40.589Z,23.55
2022-11-15T12:48:18.223Z,22.70
2022-11-15T12:51:00.727Z,21.70
2022-11-15T12:53:34.276Z,22.80
2022-11-15T12:56:17.635Z,22.90
2022-11-15T12:58:52.401Z,21.42
2022-11-15T13:01:31.686Z,21.80
2022-11-15T13:04:27.907Z,21.92
2022-11-15T13:07:05.441Z,20.25
2022-11-15T13:09:37.002Z,20.35
2022-11-15T13:12:14.665Z,21.80
2022-11-15T13:14:46.213Z,20.45
2022-11-15T13:17:25.508Z,19.98
2022-11-15T13:20:17.977Z,20.75
2022-11-15T13:23:03.126Z,19.33
2022-11-15T13:25:40.519Z,20.02
2022-11-15T13:28:14.913Z,21.17
2022-11-15T13:30:53.630Z,20.60
2022-11-15T13:33:37.463Z,19.42
2022-11-15T13:36:25.664Z,19.35
2022-11-15T13:38:59.387Z,21.65
2022-11-15T13:41:36.421Z,19.90
2022-11-15T13:44:21.307Z,21.38
2022-11-15T13:47:18.493Z,19.55
2022-11-15T13:49:52.977Z,21.95
2022-11-15T13:52:32.396Z,20.40
2022-11-15T13:55:12.084Z,21.40
2022-11-15T13:57:49.720Z,20.13
2022-11-15T14:00:42.666Z,19.70
2022-11-15T14:03:27.373Z,18.85
2022-11-15T14:06:17.150Z,20.40
2022-11-15T14:09:11.546Z,19.50
2022-11-15T14:11:56.739Z,19.23
2022-11-15T14:17:02.969Z,19.98
2022-11-15T14:19:37.261Z,18.73
2022-11-15T14:22:23.761Z,20.00
2022-11-15T14:25:20.682Z,18.58
2022-11-15T14:28:10.523Z,17.52
2022-11-15T14:30:44.203Z,18.40
2022-11-15T14:33:20.549Z,18.83
2022-11-15T14:35:53.369Z,20.08
2022-11-15T14:38:28.475Z,20.20
2022-11-15T14:41:00.146Z,18.52
2022-11-15T14:43:31.715Z,20.25
2022-11-15T14:46:03.351Z,19.35
2022-11-15T14:48:35.700Z,20.42
2022-11-15T14:51:17.535Z,19.00
2022-11-15T14:53:49.655Z,19.55
2022-11-15T14:56:21.480Z,19.60
2022-11-15T14:58:56.321Z,18.48
2022-11-15T15:01:28.226Z,19.13
2022-11-15T15:04:00.508Z,20.00
2022-11-15T15:06:35.021Z,18.92
2022-11-15T15:09:09.629Z,17.83
2022-11-15T15:11:41.263Z,20.27
2022-11-15T15:14:15.128Z,18.75
2022-11-15T15:16:52.245Z,18.67
2022-11-15T15:19:26.187Z,19.27
2022-11-15T15:21:58.433Z,19.70
2022-11-15T15:24:32.787Z,17.65
2022-11-15T15:27:04.448Z,18.00
2022-11-15T15:29:36.130Z,19.10
2022-11-15T15:32:08.945Z,18.73
2022-11-15T15:34:43.529Z,18.83
2022-11-15T15:37:27.710Z,18.52
2022-11-15T15:39:59.849Z,18.25
2022-11-15T15:42:32.496Z,18.30
2022-11-15T15:45:08.071Z,19.48
2022-11-15T15:47:43.323Z,19.23
2022-11-15T15:50:19.170Z,16.95
2022-11-15T15:52:58.775Z,16.38
2022-11-15T15:55:31.154Z,16.58
2022-11-15T15:58:11.465Z,18.08
2022-11-15T16:00:43.099Z,15.93
2022-11-15T16:03:14.735Z,16.95
2022-11-15T16:05:46.593Z,17.42
2022-11-15T16:08:27.481Z,15.80
2022-11-15T16:10:59.150Z,15.07
2022-11-15T16:13:30.816Z,16.95
2022-11-15T16:16:02.398Z,15.57
2022-11-15T16:18:35.207Z,15.45
2022-11-15T16:21:06.956Z,14.35
2022-11-15T16:23:38.612Z,16.02
2022-11-15T16:26:22.697Z,17.15
2022-11-15T16:28:54.357Z,14.45
2022-11-15T16:31:28.911Z,16.13
2022-11-15T16:34:00.546Z,16.92
2022-11-15T16:36:36.835Z,17.58
2022-11-15T16:39:14.028Z,16.65
2022-11-15T16:41:47.698Z,16.10
2022-11-15T16:44:19.367Z,15.52
2022-11-15T16:46:54.350Z,17.73
2022-11-15T16:49:25.954Z,16.13
2022-11-15T16:51:57.528Z,15.13
2022-11-15T16:54:29.421Z,13.77
2022-11-15T16:57:02.319Z,15.43
2022-11-15T16:59:38.161Z,13.82
2022-11-15T17:02:13.364Z,13.80
2022-11-15T17:04:45.353Z,14.18
2022-11-15T17:07:20.095Z,13.65
2022-11-15T17:09:51.775Z,14.32
2022-11-15T17:12:23.399Z,14.50
2022-11-15T17:14:55.091Z,17.38
2022-11-15T17:17:27.733Z,17.13
2022-11-15T17:20:01.478Z,15.95
2022-11-15T17:22:33.110Z,16.63
2022-11-15T17:25:05.376Z,16.23
2022-11-15T17:27:37.222Z,17.60
2022-11-15T17:30:12.367Z,17.65
2022-11-15T17:32:45.369Z,17.77
2022-11-15T17:35:17.113Z,16.10
2022-11-15T17:37:49.004Z,16.10
2022-11-15T17:40:21.944Z,16.52
2022-11-15T17:42:53.614Z,17.02
2022-11-15T17:45:25.268Z,18.50
2022-11-15T17:47:56.800Z,18.15
2022-11-15T17:50:28.467Z,18.88
2022-11-15T17:53:00.111Z,18.00
2022-11-15T17:55:32.913Z,17.33
2022-11-15T17:58:05.563Z,17.15
2022-11-15T18:00:37.928Z,16.83
2022-11-15T18:03:11.640Z,17.27
2022-11-15T18:05:43.984Z,16.48
2022-11-15T18:08:18.638Z,17.98
2022-11-15T18:10:50.302Z,17.02
2022-11-15T18:13:22.311Z,16.58
2022-11-15T18:15:56.152Z,16.20
2022-11-15T18:18:28.494Z,15.83
2022-11-15T18:21:11.502Z,15.80
2022-11-15T18:23:43.943Z,15.00
2022-11-15T18:26:20.126Z,16.08
2022-11-15T18:29:00.712Z,16.15
2022-11-15T18:31:33.505Z,15.90
2022-11-15T18:34:05.960Z,15.80
2022-11-15T18:36:38.962Z,14.40
2022-11-15T18:39:16.265Z,14.43
2022-11-15T18:41:48.717Z,15.13
2022-11-15T18:44:20.449Z,14.95
2022-11-15T18:46:52.214Z,16.63
2022-11-15T18:49:23.855Z,15.05
2022-11-15T18:51:56.965Z,17.63
2022-11-15T18:54:31.893Z,16.40
2022-11-15T18:57:04.256Z,16.27
2022-11-15T18:59:38.676Z,16.38
2022-11-15T19:02:12.674Z,18.50
2022-11-15T19:04:44.368Z,15.90
2022-11-15T19:07:19.031Z,14.98
2022-11-15T19:09:50.940Z,16.83
2022-11-15T19:12:22.658Z,17.45
2022-11-15T19:14:57.333Z,15.30
2022-11-15T19:17:32.136Z,16.83
2022-11-15T19:20:04.081Z,15.80
2022-11-15T19:22:42.301Z,14.23
2022-11-15T19:25:13.966Z,16.33
2022-11-15T19:27:45.631Z,16.35
2022-11-15T19:30:20.677Z,16.50
2022-11-15T19:32:52.325Z,17.13
2022-11-15T19:35:24.086Z,16.05
2022-11-15T19:37:55.702Z,16.55
2022-11-15T19:40:27.250Z,15.85
2022-11-15T19:42:58.879Z,16.95
2022-11-15T19:45:31.487Z,15.07
2022-11-15T19:48:03.265Z,16.48
2022-11-15T19:50:37.302Z,15.20
2022-11-15T19:53:09.024Z,16.33
2022-11-15T19:55:40.660Z,16.42
2022-11-15T19:58:12.267Z,15.73
2022-11-15T20:00:43.926Z,15.98
2022-11-15T20:03:21.019Z,15.00
2022-11-15T20:05:52.601Z,15.20
2022-11-15T20:08:24.250Z,15.55
2022-11-15T20:10:56.013Z,16.48
2022-11-15T20:13:28.370Z,17.23
2022-11-15T20:16:00.027Z,17.02
2022-11-15T20:18:38.604Z,17.23
2022-11-15T20:21:10.178Z,17.17
2022-11-15T20:23:54.117Z,17.27
2022-11-15T20:26:26.201Z,17.25
2022-11-15T20:29:01.274Z,16.63
2022-11-15T20:31:35.761Z,16.40
2022-11-15T20:34:07.613Z,17.80
2022-11-15T20:36:42.040Z,16.52
2022-11-15T20:41:45.359Z,16.52
2022-11-15T20:44:23.181Z,16.90
2022-11-15T20:46:57.635Z,17.92
2022-11-15T20:49:32.309Z,18.20
2022-11-15T20:52:03.998Z,19.13
2022-11-15T20:54:37.004Z,18.40
2022-11-15T20:57:08.574Z,17.25
2022-11-15T20:59:40.167Z,17.92
2022-11-15T21:02:16.050Z,16.77
2022-11-15T21:04:47.747Z,16.15
2022-11-15T21:07:19.313Z,16.80
2022-11-15T21:10:09.932Z,16.30
2022-11-15T21:12:44.106Z,18.13
2022-11-15T21:15:15.869Z,16.00
2022-11-15T21:17:47.472Z,17.73
2022-11-15T21:20:19.176Z,16.25
2022-11-15T21:22:51.778Z,16.60
2022-11-15T21:25:23.489Z,17.08
2022-11-15T21:27:55.086Z,17.25
2022-11-15T21:30:34.099Z,16.80
2022-11-15T21:33:06.161Z,17.23
2022-11-15T21:35:37.928Z,16.42
2022-11-15T21:38:12.524Z,18.08
2022-11-15T21:40:44.237Z,17.20
2022-11-15T21:43:15.786Z,17.25
2022-11-15T21:46:01.386Z,17.13
2022-11-15T21:48:36.709Z,17.30
2022-11-15T21:51:11.028Z,16.55
2022-11-15T21:53:42.840Z,15.82
2022-11-15T21:56:18.857Z,16.55
2022-11-15T21:58:51.973Z,15.35
2022-11-15T22:01:43.643Z,15.88
2022-11-15T22:04:18.490Z,16.95
2022-11-15T22:09:22.056Z,16.15
2022-11-15T22:11:53.718Z,16.15
2022-11-15T22:14:25.293Z,15.40
2022-11-15T22:16:56.881Z,16.23
2022-11-15T22:19:31.439Z,15.52
2022-11-15T22:22:03.112Z,17.30
2022-11-15T22:24:39.039Z,16.13
2022-11-15T22:27:13.538Z,15.40
2022-11-15T22:29:45.143Z,15.55
2022-11-15T22:32:16.809Z,15.60
2022-11-15T22:34:48.375Z,16.05
2022-11-15T22:37:21.178Z,15.80
2022-11-15T22:39:53.632Z,16.20
2022-11-15T22:42:25.447Z,15.45
2022-11-15T22:44:57.051Z,16.17
2022-11-15T22:47:28.692Z,16.00
2022-11-15T22:50:00.295Z,15.55
2022-11-15T22:52:33.918Z,15.75
2022-11-15T22:55:06.117Z,16.38
2022-11-15T22:57:40.811Z,15.43
2022-11-15T23:02:49.605Z,16.23
2022-11-15T23:05:24.791Z,16.35
2022-11-15T23:07:56.433Z,14.60
2022-11-15T23:10:46.715Z,16.65
2022-11-15T23:13:18.981Z,14.93
2022-11-15T23:16:33.679Z,15.02
2022-11-15T23:19:12.856Z,14.68
2022-11-15T23:22:07.131Z,14.68
2022-11-15T23:24:42.854Z,14.70
2022-11-15T23:27:20.046Z,15.45
2022-11-15T23:30:13.128Z,15.05
2022-11-15T23:33:03.389Z,14.93
2022-11-15T23:35:35.326Z,14.73
2022-11-15T23:38:06.864Z,14.05
2022-11-15T23:40:38.493Z,13.45
2022-11-15T23:43:13.158Z,14.38
2022-11-15T23:45:53.017Z,14.30
2022-11-15T23:48:24.803Z,14.73
2022-11-15T23:50:56.485Z,14.77
2022-11-15T23:53:30.987Z,14.35
2022-11-15T23:56:08.929Z,14.90
2022-11-15T23:58:43.013Z,13.88
